Mount Pleasant, Texas
Current Conditions -  °F | °C
As of 11:55 AM on Friday 19 Dec 2014 (Local Time) from KOSA Reporting Station
Overcast Overcast  
Wind Chill: 42°   Ceiling: 500
Heat Index: 46°   Visibility: 4mi
Dew Point: 45°   Wind: 7mph
Humidity: 97%   Direction: 40°NE
Pressure: 30.19"   Gusts: NA
Location:  33.16°N, 94.97°W
Report Text: KOSA 191755Z AUTO 04006KT 4SM OVC005 08/07 A3019 RMK AO1 60004 T00760071 10077 20068
Loading
Personal Weather Stations






























Interactive Weather Map New forecast layout! Learn more

10-Day Weather Forecast

Advertisements
Track Severe Weather on mobile